Time;durP1;ratioP1;P1;durP2;ratioP2;P2;SDS_P1;SDS_P2;PMS_P1;PMS_P2;Temp;Humidity;BMP_temperature;BMP_pressure;BME280_temperature;BME280_humidity;BME280_pressure;Samples;Min_cycle;Max_cycle;Signal;HPM_P1;HPM_P2
2022/06/16 00:00:18;;;;;;;5.00;2.55;;;17.20;99.90;;;;;;5042975;28;21012;-75
2022/06/16 00:02:48;;;;;;;2.92;2.60;;;17.20;99.90;;;;;;5020693;28;20205;-75
2022/06/16 00:05:18;;;;;;;3.08;2.60;;;17.20;99.90;;;;;;5015169;28;20180;-75
2022/06/16 00:07:43;;;;;;;5.43;2.95;;;17.30;99.90;;;;;;5014813;28;20200;-75
2022/06/16 00:10:11;;;;;;;2.70;2.47;;;17.30;99.90;;;;;;5025667;28;20688;-75
2022/06/16 00:12:37;;;;;;;3.30;2.58;;;17.30;99.90;;;;;;5033755;28;20212;-75
2022/06/16 00:15:06;;;;;;;3.33;2.60;;;17.30;99.90;;;;;;5034385;28;20259;-75
2022/06/16 00:17:31;;;;;;;4.57;2.80;;;17.20;99.90;;;;;;5027359;28;20217;-75
2022/06/16 00:19:57;;;;;;;4.55;3.22;;;17.10;99.90;;;;;;5014551;28;20251;-75
2022/06/16 00:22:23;;;;;;;3.60;3.13;;;17.10;99.90;;;;;;5026785;28;20542;-75
2022/06/16 00:24:48;;;;;;;3.40;3.20;;;17.10;99.90;;;;;;5035503;28;20185;-75
2022/06/16 00:27:14;;;;;;;3.38;3.00;;;17.10;99.90;;;;;;5034082;28;20192;-75
2022/06/16 00:29:40;;;;;;;5.22;3.22;;;17.10;99.90;;;;;;5032981;28;20652;-75
2022/06/16 00:32:06;;;;;;;2.90;2.70;;;17.20;99.90;;;;;;5033940;28;20209;-75
2022/06/16 00:34:31;;;;;;;2.97;2.78;;;17.30;99.90;;;;;;5030582;28;20177;-75
2022/06/16 00:36:57;;;;;;;5.03;2.88;;;17.30;99.90;;;;;;5015317;28;20215;-75
2022/06/16 00:39:23;;;;;;;4.97;3.00;;;17.30;99.90;;;;;;5015216;28;20169;-76
2022/06/16 00:41:49;;;;;;;3.08;2.47;;;17.30;99.90;;;;;;5014424;28;20660;-75
2022/06/16 00:44:20;;;;;;;4.35;2.75;;;17.30;99.90;;;;;;5021340;28;20221;-75
2022/06/16 00:46:47;;;;;;;2.88;2.67;;;17.30;99.90;;;;;;5035561;28;20223;-75
2022/06/16 00:49:13;;;;;;;2.40;2.30;;;17.30;99.90;;;;;;5035689;28;20177;-75
2022/06/16 00:51:49;;;;;;;2.65;2.50;;;17.30;99.90;;;;;;5034490;28;20200;-75
2022/06/16 00:54:40;;;;;;;2.30;2.20;;;17.30;99.90;;;;;;5025029;28;20184;-75
2022/06/16 00:57:10;;;;;;;2.40;2.30;;;17.30;99.90;;;;;;5047471;28;20581;-75
2022/06/16 00:59:37;;;;;;;2.60;2.28;;;17.30;99.90;;;;;;5042116;28;20762;-76
2022/06/16 01:02:05;;;;;;;2.45;2.28;;;17.30;99.90;;;;;;5021209;28;20592;-75
2022/06/16 01:07:18;;;;;;;2.72;2.40;;;17.20;99.90;;;;;;5030943;28;20187;-76
2022/06/16 01:09:44;;;;;;;2.65;2.53;;;17.30;99.90;;;;;;5020263;28;20355;-76
2022/06/16 01:16:10;;;;;;;5.03;2.50;;;17.20;99.90;;;;;;4990038;28;20350;-76
2022/06/16 01:19:09;;;;;;;2.30;2.20;;;17.20;99.90;;;;;;5017862;28;20184;-76
2022/06/16 01:22:01;;;;;;;2.63;2.45;;;17.10;99.90;;;;;;5013994;28;20194;-76
2022/06/16 01:25:04;;;;;;;2.20;2.10;;;17.10;99.90;;;;;;5013812;28;20193;-76
2022/06/16 01:28:03;;;;;;;2.45;2.22;;;17.10;99.90;;;;;;5013514;28;20193;-76
2022/06/16 01:30:38;;;;;;;2.30;2.15;;;17.00;99.90;;;;;;5025451;28;20200;-76
2022/06/16 01:33:27;;;;;;;3.00;2.70;;;17.00;99.90;;;;;;5032683;28;20219;-76
2022/06/16 01:36:04;;;;;;;2.47;2.17;;;17.10;99.90;;;;;;5013337;28;20178;-76
2022/06/16 01:39:03;;;;;;;2.47;2.38;;;17.10;99.90;;;;;;5013089;28;20215;-75
2022/06/16 01:41:50;;;;;;;2.33;2.22;;;17.20;99.90;;;;;;5015689;28;20578;-74
2022/06/16 01:44:27;;;;;;;3.67;2.17;;;17.10;99.90;;;;;;5032655;28;20534;-75
2022/06/16 01:47:08;;;;;;;2.00;1.90;;;17.10;99.90;;;;;;5032650;28;20175;-75
2022/06/16 01:49:41;;;;;;;4.18;2.40;;;17.10;99.90;;;;;;5031328;28;20697;-76
2022/06/16 01:52:20;;;;;;;2.17;2.08;;;17.10;99.90;;;;;;5032155;28;20208;-74
2022/06/16 01:54:58;;;;;;;2.45;2.25;;;17.00;99.90;;;;;;5022076;28;20204;-75
2022/06/16 01:57:30;;;;;;;2.40;2.20;;;16.90;99.90;;;;;;5013930;28;20707;-75
2022/06/16 02:00:13;;;;;;;3.65;2.55;;;16.90;99.90;;;;;;5013382;28;20178;-75
2022/06/16 02:02:41;;;;;;;2.83;2.30;;;16.90;99.90;;;;;;5013069;28;20193;-75
2022/06/16 02:05:23;;;;;;;2.45;2.35;;;16.90;99.90;;;;;;5013629;28;20269;-74
2022/06/16 02:07:55;;;;;;;2.10;2.00;;;16.80;99.90;;;;;;5025673;28;20192;-75
2022/06/16 02:10:35;;;;;;;2.83;2.53;;;16.80;99.90;;;;;;5032327;28;20196;-75
2022/06/16 02:13:04;;;;;;;3.03;2.60;;;16.70;99.90;;;;;;5031858;28;20212;-75
2022/06/16 02:15:59;;;;;;;3.40;2.70;;;16.70;99.90;;;;;;5021803;28;20212;-75
2022/06/16 02:18:29;;;;;;;2.45;2.35;;;16.80;99.90;;;;;;5012407;28;20185;-75
2022/06/16 02:21:14;;;;;;;3.05;2.78;;;16.80;99.90;;;;;;5012618;28;20173;-75
2022/06/16 02:23:41;;;;;;;2.42;2.33;;;16.80;99.90;;;;;;5012220;28;20177;-75
2022/06/16 02:26:07;;;;;;;3.00;2.70;;;16.90;99.90;;;;;;5012463;28;20179;-75
2022/06/16 02:28:46;;;;;;;4.32;2.80;;;17.00;99.90;;;;;;5012639;28;20343;-75
2022/06/16 02:31:25;;;;;;;4.13;2.88;;;17.00;99.90;;;;;;5024112;28;20234;-76
2022/06/16 02:33:59;;;;;;;2.90;2.50;;;17.00;99.90;;;;;;5012975;28;20640;-76
2022/06/16 02:36:43;;;;;;;2.75;2.55;;;17.00;99.90;;;;;;5012325;28;20252;-76
2022/06/16 02:39:43;;;;;;;2.50;2.30;;;16.90;99.90;;;;;;5011766;28;20237;-76
2022/06/16 02:42:26;;;;;;;8.55;2.50;;;16.90;99.90;;;;;;5018700;28;20196;-75
2022/06/16 02:45:15;;;;;;;3.42;2.83;;;16.90;99.90;;;;;;5033309;28;20184;-75
2022/06/16 02:48:22;;;;;;;2.80;2.60;;;16.90;99.90;;;;;;5033672;28;20230;-75
2022/06/16 02:51:12;;;;;;;3.63;2.80;;;16.90;99.90;;;;;;5017923;28;20727;-75
2022/06/16 02:54:02;;;;;;;2.80;2.60;;;16.90;99.90;;;;;;5013214;28;20260;-75
2022/06/16 02:56:39;;;;;;;2.97;2.70;;;16.80;99.90;;;;;;5032908;28;20741;-75
2022/06/16 02:59:13;;;;;;;2.95;2.72;;;16.70;99.90;;;;;;5017981;28;20193;-75
2022/06/16 03:01:39;;;;;;;2.50;2.40;;;16.70;99.90;;;;;;5012958;28;20191;-74
2022/06/16 03:04:14;;;;;;;2.65;2.45;;;16.70;99.90;;;;;;5014526;28;20173;-75
2022/06/16 03:06:41;;;;;;;2.38;2.22;;;16.70;99.90;;;;;;5030538;28;20462;-75
2022/06/16 03:09:07;;;;;;;3.45;2.88;;;16.60;99.90;;;;;;5031727;28;20678;-75
2022/06/16 03:11:33;;;;;;;3.13;2.90;;;16.60;99.90;;;;;;5031478;28;20204;-75
2022/06/16 03:14:00;;;;;;;2.90;2.45;;;16.60;99.90;;;;;;5031227;28;20165;-75
2022/06/16 03:16:25;;;;;;;2.58;2.47;;;16.50;99.90;;;;;;5023155;28;20196;-74
2022/06/16 03:18:51;;;;;;;4.30;2.88;;;16.50;99.90;;;;;;5030886;28;20219;-75
2022/06/16 03:21:17;;;;;;;3.10;2.90;;;16.40;99.90;;;;;;5031413;28;20192;-75
2022/06/16 03:23:43;;;;;;;2.92;2.72;;;16.30;99.90;;;;;;5021823;28;20180;-76
2022/06/16 03:26:09;;;;;;;2.55;2.45;;;16.30;99.90;;;;;;5012484;28;20260;-74
2022/06/16 03:28:35;;;;;;;3.20;3.00;;;16.30;99.90;;;;;;5030526;28;20280;-76
2022/06/16 03:31:01;;;;;;;2.88;2.67;;;16.30;99.90;;;;;;5040772;28;20184;-75
2022/06/16 03:33:26;;;;;;;3.20;3.00;;;16.20;99.90;;;;;;5037317;28;20209;-79
2022/06/16 03:35:52;;;;;;;3.88;3.00;;;16.20;99.90;;;;;;5022023;28;20185;-81
2022/06/16 03:40:59;;;;;;;3.40;3.10;;;16.20;99.90;;;;;;5030021;28;20636;-81
2022/06/16 03:43:25;;;;;;;3.45;2.78;;;16.20;99.90;;;;;;5033513;28;20188;-81
2022/06/16 03:45:50;;;;;;;3.05;2.80;;;16.10;99.90;;;;;;5031006;28;20177;-80
2022/06/16 03:48:17;;;;;;;4.05;2.70;;;16.20;99.90;;;;;;5033106;28;20581;-80
2022/06/16 03:50:42;;;;;;;4.82;3.13;;;16.20;99.90;;;;;;5024950;28;20621;-80
2022/06/16 03:53:08;;;;;;;2.90;2.70;;;16.30;99.90;;;;;;5029231;28;20259;-80
2022/06/16 03:55:34;;;;;;;3.05;2.90;;;16.30;99.90;;;;;;5023959;28;20732;-79
2022/06/16 03:58:00;;;;;;;2.70;2.50;;;16.30;99.90;;;;;;5032233;28;20236;-79
2022/06/16 04:00:26;;;;;;;4.00;3.10;;;16.30;99.90;;;;;;5028640;28;20204;-80
2022/06/16 04:03:59;;;;;;;3.28;3.00;;;16.30;99.90;;;;;;5032694;28;20201;-80
2022/06/16 04:05:39;;;;;;;4.65;3.13;;;16.40;99.90;;;;;;5033678;28;20180;-80
2022/06/16 04:08:05;;;;;;;4.28;2.85;;;16.40;99.90;;;;;;5035442;28;20184;-79
2022/06/16 04:10:31;;;;;;;3.22;2.92;;;16.50;99.90;;;;;;5031171;28;20173;-79
2022/06/16 04:12:56;;;;;;;3.40;3.10;;;16.50;99.90;;;;;;5035035;28;20254;-79
2022/06/16 04:15:22;;;;;;;2.90;2.67;;;16.60;99.90;;;;;;5038936;28;20188;-80
2022/06/16 04:17:47;;;;;;;3.17;2.95;;;16.70;99.90;;;;;;5028880;28;20188;-80
2022/06/16 04:20:13;;;;;;;4.75;3.10;;;16.80;99.90;;;;;;5045215;28;20171;-81
2022/06/16 04:22:40;;;;;;;3.03;2.83;;;16.90;99.90;;;;;;5044440;28;20546;-81
2022/06/16 04:25:08;;;;;;;5.85;2.95;;;17.00;99.90;;;;;;5026294;28;20309;-79
2022/06/16 04:27:34;;;;;;;3.30;2.85;;;17.10;99.90;;;;;;5014642;28;20644;-79
2022/06/16 04:29:59;;;;;;;3.42;3.13;;;17.20;99.90;;;;;;5014585;28;20189;-78
2022/06/16 04:32:25;;;;;;;3.40;3.10;;;17.20;99.90;;;;;;5018654;28;20219;-81
2022/06/16 04:34:50;;;;;;;4.35;3.40;;;17.20;99.90;;;;;;5030801;28;20220;-77
2022/06/16 04:37:16;;;;;;;3.35;2.92;;;17.30;99.90;;;;;;5022155;28;20177;-81
2022/06/16 04:39:42;;;;;;;4.60;2.78;;;17.40;99.90;;;;;;5040496;28;20168;-81
2022/06/16 04:42:08;;;;;;;4.70;2.88;;;17.50;99.90;;;;;;5035317;28;20209;-82
2022/06/16 04:44:34;;;;;;;3.55;3.10;;;17.60;99.90;;;;;;5035977;28;20267;-82
2022/06/16 04:47:02;;;;;;;3.83;3.47;;;17.70;99.90;;;;;;5027681;28;20176;-80
2022/06/16 04:49:28;;;;;;;3.60;3.30;;;17.80;99.90;;;;;;5034133;28;20176;-77
2022/06/16 04:51:54;;;;;;;4.53;3.72;;;18.00;99.90;;;;;;5026471;28;20714;-79
2022/06/16 04:54:20;;;;;;;3.92;3.22;;;18.10;99.90;;;;;;5031859;28;20184;-79
2022/06/16 04:56:45;;;;;;;5.43;3.00;;;18.20;99.90;;;;;;5034790;28;20165;-79
2022/06/16 04:59:13;;;;;;;3.30;3.00;;;18.50;99.90;;;;;;5033449;28;20628;-79
2022/06/16 05:01:39;;;;;;;5.00;3.17;;;18.60;99.90;;;;;;5033095;28;20204;-79
2022/06/16 05:04:06;;;;;;;4.45;3.40;;;18.70;99.90;;;;;;5017496;28;20266;-79
2022/06/16 05:06:31;;;;;;;3.72;3.47;;;18.80;99.90;;;;;;5013745;28;20178;-78
2022/06/16 05:08:57;;;;;;;3.47;3.17;;;18.90;99.90;;;;;;5013954;28;20192;-78
2022/06/16 05:11:23;;;;;;;3.22;3.03;;;19.00;99.90;;;;;;5013765;28;20200;-80
2022/06/16 05:13:48;;;;;;;3.92;3.55;;;19.10;99.90;;;;;;5027607;28;20196;-79
2022/06/16 05:16:14;;;;;;;3.58;3.38;;;19.40;99.90;;;;;;5023830;28;20219;-79
2022/06/16 05:18:40;;;;;;;3.30;3.00;;;19.70;99.90;;;;;;5029099;28;20215;-77
2022/06/16 05:21:08;;;;;;;3.10;2.90;;;20.00;99.90;;;;;;5042968;28;20604;-78
2022/06/16 05:23:34;;;;;;;3.55;3.28;;;20.10;99.90;;;;;;5044777;28;20264;-77
2022/06/16 05:25:59;;;;;;;4.45;3.47;;;20.20;99.90;;;;;;5034774;28;20627;-77
2022/06/16 05:28:25;;;;;;;3.40;3.13;;;20.30;99.90;;;;;;5018684;28;20184;-78
2022/06/16 05:30:51;;;;;;;3.72;2.90;;;20.30;99.90;;;;;;5021650;28;20602;-79
2022/06/16 05:33:16;;;;;;;2.83;2.72;;;20.40;99.90;;;;;;5022690;28;20591;-77
2022/06/16 05:35:42;;;;;;;6.05;2.75;;;20.40;99.90;;;;;;5018185;28;20256;-77
2022/06/16 05:38:07;;;;;;;3.58;3.28;;;20.50;99.90;;;;;;5027443;28;20216;-77
2022/06/16 05:40:33;;;;;;;3.40;3.10;;;20.60;99.90;;;;;;5034829;28;20164;-78
2022/06/16 05:42:59;;;;;;;3.72;3.42;;;20.70;99.90;;;;;;5028979;28;20285;-80
2022/06/16 05:45:24;;;;;;;3.80;2.97;;;20.70;99.90;;;;;;5016404;28;20553;-79
2022/06/16 05:47:50;;;;;;;3.20;3.00;;;20.70;99.90;;;;;;5032826;28;20582;-79
2022/06/16 05:50:17;;;;;;;7.18;3.58;;;20.80;99.90;;;;;;5025076;28;20671;-81
2022/06/16 05:52:43;;;;;;;3.38;3.17;;;20.80;99.90;;;;;;5015698;28;20559;-80
2022/06/16 05:55:13;;;;;;;5.13;3.60;;;20.80;99.90;;;;;;5020705;28;20208;-82
2022/06/16 05:57:39;;;;;;;5.47;3.15;;;21.00;99.90;;;;;;5026650;28;20212;-80
2022/06/16 06:00:07;;;;;;;2.83;2.70;;;21.10;99.90;;;;;;5025076;28;20570;-80
2022/06/16 06:02:33;;;;;;;3.80;2.70;;;21.20;99.90;;;;;;5026303;28;20246;-79
2022/06/16 06:04:59;;;;;;;3.50;3.17;;;21.40;99.90;;;;;;5017632;28;20226;-78
2022/06/16 06:07:24;;;;;;;5.70;3.33;;;21.70;99.90;;;;;;5029887;28;20172;-80
2022/06/16 06:18:06;;;;;;;3.28;3.08;;;21.40;99.90;;;;;;5012771;28;20208;-76
2022/06/16 06:20:32;;;;;;;5.20;3.88;;;21.30;99.90;;;;;;5012525;28;20177;-77
2022/06/16 06:22:58;;;;;;;4.18;3.88;;;21.40;99.90;;;;;;5015016;28;20243;-80
2022/06/16 06:25:24;;;;;;;5.45;3.70;;;21.70;99.90;;;;;;5037251;28;20179;-81
2022/06/16 06:27:50;;;;;;;3.88;3.53;;;21.90;99.90;;;;;;5028490;28;20216;-80
2022/06/16 06:30:28;;;;;;;4.05;3.65;;;21.90;99.90;;;;;;5037243;28;20678;-80
2022/06/16 06:32:55;;;;;;;4.65;3.33;;;22.00;99.90;;;;;;5031301;28;20205;-81
2022/06/16 06:35:22;;;;;;;5.63;3.65;;;22.00;99.90;;;;;;5021718;28;20255;-81
2022/06/16 06:37:49;;;;;;;7.57;4.22;;;21.90;99.90;;;;;;5019677;28;20633;-81
2022/06/16 06:40:22;;;;;;;3.90;3.55;;;21.70;99.90;;;;;;5024744;28;20187;-80
2022/06/16 06:42:48;;;;;;;3.38;3.17;;;21.70;99.90;;;;;;5026129;28;20673;-81
2022/06/16 06:45:13;;;;;;;4.35;3.80;;;21.80;99.90;;;;;;5021996;28;20239;-80
2022/06/16 06:47:39;;;;;;;4.00;3.70;;;21.90;99.90;;;;;;5023143;28;20188;-80
2022/06/16 06:50:06;;;;;;;3.83;3.40;;;21.80;99.90;;;;;;5023254;28;20632;-80
2022/06/16 06:52:32;;;;;;;3.85;3.53;;;21.90;99.90;;;;;;5022384;28;20218;-78
2022/06/16 06:54:57;;;;;;;3.25;3.05;;;22.30;99.90;;;;;;5024723;28;20181;-78
2022/06/16 06:57:28;;;;;;;4.60;3.70;;;22.70;99.90;;;;;;5045326;28;20631;-77
2022/06/16 06:59:54;;;;;;;6.07;3.60;;;23.20;99.90;;;;;;5042570;28;20193;-78
2022/06/16 07:02:20;;;;;;;3.92;3.42;;;23.70;99.90;;;;;;5017537;28;20212;-77
2022/06/16 07:04:46;;;;;;;3.70;3.40;;;24.10;99.90;;;;;;5027421;28;20259;-79
2022/06/16 07:07:15;;;;;;;5.90;3.35;;;24.50;99.90;;;;;;5024152;28;20189;-79
2022/06/16 07:09:41;;;;;;;4.03;3.15;;;24.60;99.90;;;;;;5020849;28;20672;-79
2022/06/16 07:12:13;;;;;;;3.85;3.55;;;24.30;99.90;;;;;;5023552;28;20213;-78
2022/06/16 07:14:43;;;;;;;3.78;3.38;;;24.00;99.90;;;;;;5023771;28;20714;-78
2022/06/16 07:17:09;;;;;;;3.97;3.53;;;23.70;99.90;;;;;;5025134;28;20184;-77
2022/06/16 07:19:35;;;;;;;3.53;3.20;;;23.50;99.90;;;;;;5024489;28;20654;-79
2022/06/16 07:22:02;;;;;;;4.05;3.65;;;23.50;99.90;;;;;;5021107;28;20206;-76
2022/06/16 07:24:27;;;;;;;3.55;3.17;;;23.60;99.90;;;;;;5023531;28;20260;-75
2022/06/16 07:26:53;;;;;;;4.90;3.70;;;24.10;99.90;;;;;;5038758;28;20615;-75
2022/06/16 07:29:28;;;;;;;4.15;3.83;;;24.50;99.90;;;;;;5034333;28;20672;-77
2022/06/16 07:31:54;;;;;;;4.00;3.65;;;24.50;99.90;;;;;;5028588;28;20703;-74
2022/06/16 07:34:19;;;;;;;3.65;2.97;;;24.30;99.90;;;;;;5038121;28;20207;-76
2022/06/16 07:36:45;;;;;;;3.95;3.50;;;24.10;99.90;;;;;;5022887;28;20188;-77
2022/06/16 07:39:11;;;;;;;3.97;3.10;;;24.00;99.90;;;;;;5025854;28;20182;-77
2022/06/16 07:41:37;;;;;;;5.82;3.70;;;23.80;99.90;;;;;;5024410;28;20258;-77
2022/06/16 07:44:05;;;;;;;4.13;3.72;;;23.60;99.90;;;;;;5020361;28;20660;-73
2022/06/16 07:46:31;;;;;;;6.30;3.80;;;23.60;99.90;;;;;;5034764;28;20169;-74
2022/06/16 07:48:57;;;;;;;4.00;3.80;;;23.60;99.90;;;;;;5020286;28;20672;-73
2022/06/16 07:51:22;;;;;;;3.75;3.40;;;23.60;99.90;;;;;;5028030;28;20203;-77
2022/06/16 07:53:48;;;;;;;3.20;2.90;;;23.70;99.90;;;;;;5026719;28;20209;-78
2022/06/16 07:56:15;;;;;;;4.07;3.45;;;23.70;99.90;;;;;;5028111;28;20175;-79
2022/06/16 07:58:43;;;;;;;3.20;3.00;;;23.80;99.90;;;;;;5034095;28;20632;-79
2022/06/16 08:01:09;;;;;;;3.90;3.60;;;23.90;99.90;;;;;;5023617;28;20172;-79
2022/06/16 08:03:35;;;;;;;4.43;4.00;;;23.80;99.90;;;;;;5030447;28;20184;-78
2022/06/16 08:06:04;;;;;;;4.10;3.70;;;23.80;99.90;;;;;;5028838;28;20189;-78
2022/06/16 08:08:30;;;;;;;3.97;3.50;;;23.80;99.90;;;;;;5024243;28;20193;-79
2022/06/16 08:10:55;;;;;;;4.57;4.15;;;23.90;99.90;;;;;;5029511;28;20190;-75
2022/06/16 08:13:22;;;;;;;5.10;3.13;;;23.80;99.90;;;;;;5034063;28;20204;-74
2022/06/16 08:15:50;;;;;;;5.35;3.33;;;23.90;99.90;;;;;;5034531;28;20230;-78
2022/06/16 08:18:19;;;;;;;3.65;3.30;;;24.00;99.90;;;;;;5020363;28;20177;-75
2022/06/16 08:20:45;;;;;;;3.85;3.47;;;24.10;99.90;;;;;;5033222;28;20322;-74
2022/06/16 08:23:11;;;;;;;3.90;3.55;;;24.10;99.90;;;;;;5032915;28;20200;-73
2022/06/16 08:25:38;;;;;;;3.35;3.15;;;24.20;99.90;;;;;;5039489;28;20270;-75
2022/06/16 08:28:06;;;;;;;4.90;3.33;;;24.40;99.90;;;;;;5050539;28;20175;-73
2022/06/16 08:30:32;;;;;;;4.15;3.75;;;24.80;99.90;;;;;;5038011;28;20201;-78
2022/06/16 08:32:59;;;;;;;3.42;3.17;;;25.20;99.90;;;;;;5047658;28;20211;-77
2022/06/16 08:35:25;;;;;;;3.63;3.33;;;25.60;99.90;;;;;;5014545;28;20193;-77
2022/06/16 08:37:50;;;;;;;3.50;3.20;;;25.80;99.90;;;;;;5016601;28;20259;-78
2022/06/16 08:40:18;;;;;;;6.50;3.20;;;26.30;99.90;;;;;;5034416;28;20169;-78
2022/06/16 08:42:58;;;;;;;4.32;3.92;;;26.70;99.90;;;;;;5032138;28;20202;-78
2022/06/16 08:45:36;;;;;;;3.67;3.42;;;27.30;99.90;;;;;;5016512;28;20601;-80
2022/06/16 08:48:31;;;;;;;3.35;3.15;;;27.60;99.90;;;;;;5030514;28;20538;-77
2022/06/16 08:51:04;;;;;;;3.78;3.47;;;27.60;99.40;;;;;;5024636;28;20181;-77
2022/06/16 08:54:08;;;;;;;5.00;3.30;;;28.00;97.80;;;;;;5028228;28;20243;-75
2022/06/16 08:56:49;;;;;;;3.60;3.28;;;28.60;94.80;;;;;;5014617;28;20177;-76
2022/06/16 08:59:23;;;;;;;3.30;3.10;;;29.10;94.00;;;;;;5013679;28;20181;-76
2022/06/16 09:01:59;;;;;;;5.57;3.08;;;29.20;92.50;;;;;;5015599;28;20690;-75
2022/06/16 09:04:32;;;;;;;4.07;3.47;;;29.20;93.30;;;;;;5015966;28;20196;-75
2022/06/16 09:07:14;;;;;;;3.65;3.20;;;29.10;91.70;;;;;;5022870;28;20185;-78
2022/06/16 09:10:18;;;;;;;3.50;3.30;;;29.20;90.60;;;;;;5024266;28;20169;-75
2022/06/16 09:13:20;;;;;;;3.92;2.78;;;29.30;92.20;;;;;;5023572;28;20196;-74
2022/06/16 09:16:04;;;;;;;3.15;2.85;;;29.50;91.90;;;;;;5015796;28;20173;-73
2022/06/16 09:19:05;;;;;;;4.65;3.30;;;29.50;91.00;;;;;;5027161;28;20180;-72
2022/06/16 09:21:58;;;;;;;3.47;3.28;;;29.60;91.80;;;;;;5024570;28;20192;-74
2022/06/16 09:25:01;;;;;;;3.03;2.83;;;30.00;91.70;;;;;;5022387;28;20189;-73
2022/06/16 09:27:41;;;;;;;4.22;2.85;;;30.60;90.60;;;;;;5037855;28;20278;-73
2022/06/16 09:30:13;;;;;;;3.47;3.17;;;31.50;89.00;;;;;;5044530;28;20662;-71
2022/06/16 09:32:42;;;;;;;3.70;2.90;;;31.90;82.60;;;;;;5030245;28;20219;-71
2022/06/16 09:35:07;;;;;;;3.75;3.38;;;32.40;77.80;;;;;;5023668;28;20225;-71
2022/06/16 09:37:52;;;;;;;3.17;2.80;;;32.70;75.60;;;;;;5023576;28;20243;-74
2022/06/16 09:40:26;;;;;;;4.05;3.00;;;33.50;71.20;;;;;;5021014;28;20203;-73
2022/06/16 09:43:03;;;;;;;2.90;2.65;;;33.50;71.00;;;;;;5019996;28;20245;-74
2022/06/16 09:45:34;;;;;;;3.00;2.75;;;33.90;67.70;;;;;;5025666;28;20262;-74
2022/06/16 09:48:05;;;;;;;3.08;2.88;;;34.00;65.20;;;;;;5025081;28;20603;-73
2022/06/16 09:50:37;;;;;;;2.83;2.50;;;34.10;64.60;;;;;;5024923;28;20190;-73
2022/06/16 09:53:14;;;;;;;4.13;2.55;;;34.00;63.90;;;;;;5032877;28;20200;-71
2022/06/16 09:55:47;;;;;;;3.15;2.95;;;34.90;61.20;;;;;;5035570;28;20171;-72
2022/06/16 09:58:35;;;;;;;2.92;2.58;;;35.70;57.90;;;;;;5018556;28;20177;-75
2022/06/16 10:01:06;;;;;;;4.10;2.70;;;35.90;58.80;;;;;;5018776;28;20185;-74
2022/06/16 10:03:53;;;;;;;3.00;2.60;;;36.40;57.00;;;;;;5013282;28;20184;-74
2022/06/16 10:06:25;;;;;;;4.68;4.30;;;35.90;56.30;;;;;;5015755;28;20533;-73
2022/06/16 10:09:03;;;;;;;3.10;2.55;;;35.60;56.20;;;;;;5011579;28;20279;-74
2022/06/16 10:11:58;;;;;;;2.33;2.22;;;35.60;55.60;;;;;;5024586;28;20785;-74
2022/06/16 10:14:30;;;;;;;3.67;2.40;;;36.90;54.50;;;;;;5031098;28;20176;-74
2022/06/16 10:17:01;;;;;;;4.38;3.08;;;37.90;54.40;;;;;;5029949;28;20175;-74
2022/06/16 10:19:31;;;;;;;2.47;2.38;;;38.60;54.20;;;;;;5023729;28;20165;-74
2022/06/16 10:21:59;;;;;;;2.72;2.53;;;37.90;55.10;;;;;;5025608;28;20204;-74
2022/06/16 10:24:32;;;;;;;2.53;2.33;;;37.20;54.10;;;;;;5022589;28;20178;-75
2022/06/16 10:26:59;;;;;;;2.72;2.63;;;36.00;55.90;;;;;;5038074;28;20184;-75
2022/06/16 10:29:28;;;;;;;4.80;2.70;;;35.40;56.80;;;;;;5032875;28;20602;-75
2022/06/16 10:31:56;;;;;;;2.88;2.67;;;34.60;58.20;;;;;;5047538;28;20693;-74
2022/06/16 10:34:30;;;;;;;2.92;2.63;;;34.50;60.60;;;;;;5029882;28;20195;-73
2022/06/16 10:37:22;;;;;;;4.10;2.60;;;35.90;60.80;;;;;;5011483;28;20180;-74
2022/06/16 10:39:54;;;;;;;2.72;2.40;;;37.50;56.60;;;;;;5021222;28;20168;-76
2022/06/16 10:42:20;;;;;;;10.70;3.15;;;37.30;53.90;;;;;;5018259;28;20211;-72
2022/06/16 10:45:12;;;;;;;2.78;2.58;;;36.60;53.80;;;;;;5029800;28;20172;-72
2022/06/16 10:47:47;;;;;;;2.55;2.35;;;35.80;55.20;;;;;;5023077;28;20721;-72
2022/06/16 10:50:41;;;;;;;4.03;2.70;;;35.40;55.70;;;;;;5013155;28;20330;-71
2022/06/16 10:53:22;;;;;;;2.65;2.40;;;36.10;54.60;;;;;;5022693;28;20211;-72
2022/06/16 10:55:49;;;;;;;3.13;2.70;;;36.10;54.60;;;;;;5031316;28;20180;-72
2022/06/16 10:58:23;;;;;;;2.58;2.38;;;36.10;55.10;;;;;;5030036;28;20169;-71
2022/06/16 11:01:16;;;;;;;2.40;2.20;;;35.60;55.70;;;;;;5014377;28;20206;-73
2022/06/16 11:04:01;;;;;;;3.45;2.63;;;36.30;54.50;;;;;;5015687;28;20168;-71
2022/06/16 11:06:28;;;;;;;3.13;2.75;;;35.80;56.20;;;;;;5015834;28;20181;-73
2022/06/16 11:08:59;;;;;;;3.03;2.67;;;35.20;58.10;;;;;;5015704;28;20181;-73
2022/06/16 11:12:02;;;;;;;3.00;2.80;;;34.80;58.30;;;;;;5015707;28;20192;-72
2022/06/16 11:14:45;;;;;;;3.00;2.80;;;34.00;60.80;;;;;;5012357;28;20200;-74
2022/06/16 11:17:17;;;;;;;3.85;3.55;;;33.40;62.80;;;;;;5024459;28;20177;-73
2022/06/16 11:19:52;;;;;;;3.10;2.97;;;33.70;63.50;;;;;;5018857;28;20176;-76
2022/06/16 11:22:27;;;;;;;4.03;3.03;;;35.30;61.60;;;;;;5023585;28;20195;-74
2022/06/16 11:25:06;;;;;;;2.95;2.80;;;36.50;58.80;;;;;;5032659;28;20194;-72
2022/06/16 11:27:58;;;;;;;3.40;3.20;;;38.20;57.00;;;;;;5020683;28;20662;-72
2022/06/16 11:30:29;;;;;;;3.13;2.92;;;39.80;53.00;;;;;;5023026;28;20195;-72
2022/06/16 11:32:55;;;;;;;3.33;3.13;;;39.90;52.30;;;;;;5018838;28;20742;-73
2022/06/16 11:35:29;;;;;;;2.40;2.30;;;41.00;51.30;;;;;;5027878;28;20188;-72
2022/06/16 11:38:04;;;;;;;3.22;2.70;;;41.90;47.60;;;;;;5023028;28;20176;-72
2022/06/16 11:40:51;;;;;;;2.90;2.70;;;41.70;47.60;;;;;;5023033;28;20191;-72
2022/06/16 11:43:25;;;;;;;3.10;2.90;;;41.80;47.60;;;;;;5029548;28;20195;-71
2022/06/16 11:46:21;;;;;;;3.38;2.70;;;40.90;48.00;;;;;;5024797;28;20262;-71
2022/06/16 11:48:59;;;;;;;2.80;2.60;;;40.30;48.70;;;;;;5022327;28;20197;-72
2022/06/16 11:51:28;;;;;;;2.67;2.58;;;39.80;48.60;;;;;;5026452;28;20201;-72
2022/06/16 11:54:19;;;;;;;3.45;3.17;;;39.20;48.40;;;;;;5022258;28;20235;-72
2022/06/16 11:56:52;;;;;;;3.05;2.85;;;38.50;48.60;;;;;;5022596;28;20933;-72
2022/06/16 11:59:54;;;;;;;2.90;2.70;;;38.20;49.70;;;;;;5025827;28;20551;-72
2022/06/16 12:02:38;;;;;;;3.65;2.42;;;38.40;50.00;;;;;;5018618;28;20200;-71
2022/06/16 12:05:33;;;;;;;3.10;2.55;;;39.20;48.20;;;;;;5018776;28;20665;-72
2022/06/16 12:08:29;;;;;;;2.33;2.22;;;40.00;46.80;;;;;;5024845;28;20196;-72
2022/06/16 12:11:13;;;;;;;3.00;2.80;;;40.30;45.80;;;;;;5045610;28;20171;-72
2022/06/16 12:14:04;;;;;;;3.15;2.95;;;38.80;46.10;;;;;;5040248;28;20211;-73
2022/06/16 12:16:39;;;;;;;5.13;3.08;;;36.90;49.70;;;;;;5025870;28;20204;-72
2022/06/16 12:19:34;;;;;;;3.22;3.03;;;35.90;51.80;;;;;;5014814;28;20202;-72
2022/06/16 12:22:12;;;;;;;7.90;3.80;;;34.60;54.90;;;;;;5014357;28;20273;-72
2022/06/16 12:24:54;;;;;;;3.20;3.00;;;33.60;56.80;;;;;;5017921;28;20176;-72
2022/06/16 12:27:26;;;;;;;3.50;3.20;;;32.60;59.20;;;;;;5022534;28;20184;-71
2022/06/16 12:30:25;;;;;;;3.10;2.90;;;31.50;62.30;;;;;;5020900;28;20200;-71
2022/06/16 12:33:11;;;;;;;3.47;3.25;;;30.30;64.10;;;;;;5015318;28;20216;-71
2022/06/16 12:35:43;;;;;;;6.47;2.90;;;29.50;65.40;;;;;;5024109;28;20625;-71
2022/06/16 12:38:16;;;;;;;2.80;2.60;;;28.80;66.80;;;;;;5025580;28;20543;-74
2022/06/16 12:40:49;;;;;;;3.28;3.00;;;28.30;65.60;;;;;;5023694;28;20173;-73
2022/06/16 12:43:24;;;;;;;3.63;3.33;;;27.70;70.70;;;;;;5025868;28;20220;-74
2022/06/16 12:46:01;;;;;;;5.03;3.40;;;27.30;73.10;;;;;;5014242;28;20177;-74
2022/06/16 12:48:34;;;;;;;3.10;2.90;;;27.10;73.90;;;;;;5016266;28;20554;-74
2022/06/16 12:51:04;;;;;;;3.60;3.30;;;27.10;74.10;;;;;;5022850;28;20667;-71
2022/06/16 12:53:53;;;;;;;3.55;3.25;;;27.40;74.20;;;;;;5018819;28;20232;-71
2022/06/16 12:57:00;;;;;;;4.53;2.30;;;31.00;66.60;;;;;;5024236;28;20222;-70
2022/06/16 12:59:36;;;;;;;3.97;3.00;;;34.50;58.10;;;;;;5014012;28;20187;-70
2022/06/16 13:02:04;;;;;;;3.22;2.78;;;38.00;52.50;;;;;;5033901;28;20258;-74
2022/06/16 13:04:32;;;;;;;2.90;2.70;;;41.30;46.90;;;;;;5027287;28;20270;-71
2022/06/16 13:07:01;;;;;;;3.03;2.78;;;42.00;44.50;;;;;;5014192;28;20264;-71
2022/06/16 13:09:27;;;;;;;2.53;2.33;;;42.80;43.20;;;;;;5013534;28;20197;-72
2022/06/16 13:12:02;;;;;;;2.58;2.38;;;42.40;44.40;;;;;;5013882;28;20204;-72
2022/06/16 13:14:54;;;;;;;3.10;2.30;;;43.30;42.20;;;;;;5018845;28;20173;-71
2022/06/16 13:17:27;;;;;;;3.55;2.28;;;45.10;40.10;;;;;;5014242;28;20180;-71
2022/06/16 13:20:07;;;;;;;2.30;2.05;;;46.40;38.00;;;;;;5032890;28;20180;-73
2022/06/16 13:22:45;;;;;;;2.70;2.03;;;47.60;37.20;;;;;;5027018;28;20207;-71
2022/06/16 13:25:37;;;;;;;1.70;1.70;;;48.60;35.80;;;;;;5033837;28;20195;-70
2022/06/16 13:28:05;;;;;;;2.40;1.90;;;48.60;35.40;;;;;;5029121;28;20190;-71
2022/06/16 13:30:32;;;;;;;3.90;2.00;;;49.50;34.00;;;;;;5025155;28;20195;-71
2022/06/16 13:33:07;;;;;;;2.67;1.80;;;50.40;33.60;;;;;;5033200;28;20203;-73
2022/06/16 13:35:49;;;;;;;2.40;2.20;;;51.30;32.00;;;;;;5015905;28;20661;-72